• Join FlightAware (Why Join?)
  • Login
  • US Flag 
10:29PM EDT


 

Airport Tracker/Info


-or-


 

Live Flight TrackerFlight Track Log ✈ KAP46 ✈ 14-Jun-2014 ✈ KALB - KMSS

Flight Track Log - Related Links

Times and Time Zones

All times are in EDT time to prevent confusion due to time zone crossing. See the KAP46 flight status page for this flight to view local times or setup timezone preferences in your user account.

Time Position Orientation Groundspeed Altitude Reporting Facility
EDT Latitude Longitude Course Direction KTS MPH feet Rate Location/Type
11:36AM 42.7522 -73.8208 277° West 126 145 900  Level Boston Center
11:36AM 42.7544 -73.8450 277° West 108 124 1,400 720 Climbing Boston Center
11:37AM 42.7453 -73.8828 252° West 104 120 2,100 720 Climbing Boston Center
11:38AM 42.7542 -73.8872 340° North 105 121 2,400 660 Climbing Boston Center
11:38AM 42.7725 -73.8978 337° Northwest 104 120 2,800 600 Climbing Boston Center
11:39AM 42.7822 -73.9000 350° North 105 121 3,000 840 Climbing Boston Center
11:39AM 42.8069 -73.9094 344° North 114 131 3,800 960 Climbing Boston Center
11:40AM 42.8114 -73.9106 350° North 106 122 4,000 720 Climbing Boston Center
11:41AM 42.8447 -73.9222 346° North 110 127 4,800 720 Climbing Boston Center
11:41AM 42.8686 -73.9364 337° Northwest 119 137 5,400 780 Climbing Boston Center
11:42AM 42.8753 -73.9378 351° North 117 135 5,600 720 Climbing Boston Center
11:43AM 42.9108 -73.9544 341° North 128 147 6,300 720 Climbing Boston Center
11:43AM 42.9372 -73.9714 335° Northwest 135 155 6,900 720 Climbing Boston Center
11:44AM 42.9475 -73.9758 342° North 132 152 7,100 540 Climbing Boston Center
11:44AM 42.9731 -73.9867 343° North 135 155 7,500 600 Climbing Boston Center
11:45AM 42.9844 -73.9894 350° North 133 153 7,700 480 Climbing Boston Center
11:45AM 43.0114 -73.9997 344° North 145 167 8,000 240 Climbing Boston Center
11:46AM 43.0244 -74.0044 345° North 147 169 8,000 60 Level Boston Center
11:46AM 43.0558 -74.0150 346° North 167 192 8,100 60 Climbing Boston Center
11:47AM 43.0742 -74.0225 343° North 170 196 8,100 -120 Level Boston Center
11:48AM 43.1056 -74.0381 340° North 180 207 8,000  Descending Boston Center
11:48AM 43.1208 -74.0458 340° North 179 206 8,100  Climbing Boston Center
11:49AM 43.1697 -74.0642 345° North 181 208 8,000  Descending Boston Center
11:50AM 43.2197 -74.0864 342° North 178 205 8,100 360 Climbing Boston Center
11:51AM 43.2597 -74.1031 343° North 152 175 8,800 480 Climbing Boston Center
11:52AM 43.3025 -74.1203 344° North 152 175 9,100 120 Climbing Boston Center
11:53AM 43.3494 -74.1403 343° North 172 198 9,100  Level Boston Center
11:54AM 43.3972 -74.1592 344° North 174 200 9,100  Level Boston Center
11:55AM 43.4433 -74.1786 343° North 173 199 9,200  Climbing Boston Center
11:56AM 43.4889 -74.1994 342° North 174 200 9,100 -60 Descending Boston Center
11:57AM 43.5364 -74.2106 350° North 174 200 9,100  Level Boston Center
11:58AM 43.5847 -74.2247 348° North 174 200 9,100  Level Boston Center
11:59AM 43.6325 -74.2400 347° North 174 200 9,100  Level Boston Center
12:00PM 43.6900 -74.2581 347° North 175 201 9,200  Climbing Boston Center
12:01PM 43.7375 -74.2714 349° North 175 201 9,100  Descending Boston Center
12:02PM 43.7839 -74.2856 348° North 174 200 9,200  Climbing Boston Center
12:03PM 43.8311 -74.2994 348° North 174 200 9,200  Level Boston Center
12:04PM 43.8786 -74.3136 348° North 174 200 9,200 -60 Level Boston Center
12:05PM 43.9258 -74.3292 347° North 174 200 9,100 -120 Descending Boston Center
12:06PM 43.9736 -74.3447 347° North 175 201 9,000 -60 Descending Boston Center
12:07PM 44.0294 -74.3611 348° North 174 200 9,000  Level Boston Center
12:08PM 44.0753 -74.3750 348° North 174 200 9,000  Level Boston Center
12:09PM 44.1211 -74.3897 347° North 173 199 9,000  Level Boston Center
12:10PM 44.1667 -74.4039 347° North 172 198 9,000  Level Boston Center
12:11PM 44.2142 -74.4178 348° North 172 198 9,000  Level Boston Center
12:13PM 44.2600 -74.4317 348° North 172 198 9,000  Level Boston Center
12:14PM 44.3167 -74.4494 347° North 172 198 9,000  Level Boston Center
12:15PM 44.3633 -74.4639 348° North 172 198 9,000  Level Boston Center
12:16PM 44.4086 -74.4778 348° North 172 198 9,000  Level Boston Center
12:17PM 44.4556 -74.4931 347° North 172 198 9,100 -60 Climbing Boston Center
12:18PM 44.5008 -74.5078 347° North 172 198 8,900 -420 Descending Boston Center
12:19PM 44.5497 -74.5242 347° North 173 199 8,300 -540 Descending Boston Center
12:20PM 44.6011 -74.5422 346° North 181 208 7,800 -660 Descending Boston Center
12:21PM 44.6628 -74.5603 348° North 186 214 7,000 -720 Descending Boston Center
12:22PM 44.7111 -74.5753 348° North 186 214 6,400 -660 Descending Boston Center
12:23PM 44.7597 -74.5914 347° North 183 211 5,700 -660 Descending Boston Center
12:24PM 44.8061 -74.6053 348° North 178 205 5,100 -660 Descending Boston Center
12:25PM 44.8539 -74.6214 347° North 178 205 4,400 -720 Descending Boston Center
12:26PM 44.9019 -74.6372 347° North 178 205 3,700 -660 Descending Boston Center
12:26PM 44.9111 -74.6400 348° North 178 205 3,600 -540 Descending Boston Center